sensor_id;sensor_type;location;lat;lon;timestamp;pressure;altitude;pressure_sealevel;temperature;humidity
8160;BME280;27404;52.398;9.646;2022-10-16T00:00:16;100340.25;;;11.09;100.00
8160;BME280;27404;52.398;9.646;2022-10-16T00:02:41;100345.47;;;11.11;100.00
8160;BME280;27404;52.398;9.646;2022-10-16T00:05:06;100351.41;;;11.20;100.00
8160;BME280;27404;52.398;9.646;2022-10-16T00:07:32;100352.31;;;11.25;100.00
8160;BME280;27404;52.398;9.646;2022-10-16T00:09:57;100350.16;;;11.28;100.00
8160;BME280;27404;52.398;9.646;2022-10-16T00:12:23;100349.88;;;11.29;100.00
8160;BME280;27404;52.398;9.646;2022-10-16T00:14:48;100345.25;;;11.30;100.00
8160;BME280;27404;52.398;9.646;2022-10-16T00:17:14;100360.69;;;11.36;100.00
8160;BME280;27404;52.398;9.646;2022-10-16T00:19:39;100357.09;;;11.35;100.00
8160;BME280;27404;52.398;9.646;2022-10-16T00:22:04;100347.09;;;11.41;100.00
8160;BME280;27404;52.398;9.646;2022-10-16T00:24:30;100363.16;;;11.37;100.00
8160;BME280;27404;52.398;9.646;2022-10-16T00:26:55;100357.94;;;11.36;100.00
8160;BME280;27404;52.398;9.646;2022-10-16T00:29:21;100358.03;;;11.41;100.00
8160;BME280;27404;52.398;9.646;2022-10-16T00:31:46;100363.16;;;11.37;100.00
8160;BME280;27404;52.398;9.646;2022-10-16T00:34:11;100363.75;;;11.39;100.00
8160;BME280;27404;52.398;9.646;2022-10-16T00:36:37;100371.94;;;11.39;100.00
8160;BME280;27404;52.398;9.646;2022-10-16T00:39:03;100366.25;;;11.41;100.00
8160;BME280;27404;52.398;9.646;2022-10-16T00:41:29;100372.81;;;11.40;100.00
8160;BME280;27404;52.398;9.646;2022-10-16T00:44:00;100377.88;;;11.48;100.00
8160;BME280;27404;52.398;9.646;2022-10-16T00:46:40;100382.19;;;11.44;100.00
8160;BME280;27404;52.398;9.646;2022-10-16T00:49:11;100378.38;;;11.45;100.00
8160;BME280;27404;52.398;9.646;2022-10-16T00:51:43;100378.28;;;11.40;100.00
8160;BME280;27404;52.398;9.646;2022-10-16T00:54:14;100374.88;;;11.33;100.00
8160;BME280;27404;52.398;9.646;2022-10-16T00:56:41;100375.34;;;11.30;100.00
8160;BME280;27404;52.398;9.646;2022-10-16T00:59:15;100377.59;;;11.33;100.00
8160;BME280;27404;52.398;9.646;2022-10-16T01:01:41;100379.00;;;11.35;100.00
8160;BME280;27404;52.398;9.646;2022-10-16T01:04:06;100384.16;;;11.32;100.00
8160;BME280;27404;52.398;9.646;2022-10-16T01:09:41;100384.72;;;11.34;100.00
8160;BME280;27404;52.398;9.646;2022-10-16T01:12:22;100374.88;;;11.33;100.00
8160;BME280;27404;52.398;9.646;2022-10-16T01:15:01;100374.19;;;11.25;100.00
8160;BME280;27404;52.398;9.646;2022-10-16T01:17:41;100372.53;;;11.24;100.00
8160;BME280;27404;52.398;9.646;2022-10-16T01:20:18;100374.19;;;11.25;100.00
8160;BME280;27404;52.398;9.646;2022-10-16T01:23:14;100373.28;;;11.20;100.00
8160;BME280;27404;52.398;9.646;2022-10-16T01:26:09;100395.06;;;11.15;100.00
8160;BME280;27404;52.398;9.646;2022-10-16T01:31:18;100407.47;;;11.05;100.00
8160;BME280;27404;52.398;9.646;2022-10-16T01:33:52;100399.41;;;10.99;100.00
8160;BME280;27404;52.398;9.646;2022-10-16T01:36:28;100400.41;;;10.92;100.00
8160;BME280;27404;52.398;9.646;2022-10-16T01:38:59;100399.31;;;10.93;100.00
8160;BME280;27404;52.398;9.646;2022-10-16T01:41:38;100398.50;;;10.93;100.00
8160;BME280;27404;52.398;9.646;2022-10-16T01:44:08;100402.78;;;10.89;100.00
8160;BME280;27404;52.398;9.646;2022-10-16T01:46:38;100410.66;;;10.85;100.00
8160;BME280;27404;52.398;9.646;2022-10-16T01:49:05;100413.03;;;10.81;100.00
8160;BME280;27404;52.398;9.646;2022-10-16T01:51:32;100403.44;;;10.79;100.00
8160;BME280;27404;52.398;9.646;2022-10-16T01:54:00;100406.97;;;10.79;100.00
8160;BME280;27404;52.398;9.646;2022-10-16T01:56:27;100394.63;;;10.77;100.00
8160;BME280;27404;52.398;9.646;2022-10-16T01:59:04;100402.72;;;10.72;100.00
8160;BME280;27404;52.398;9.646;2022-10-16T02:01:33;100408.09;;;10.66;100.00
8160;BME280;27404;52.398;9.646;2022-10-16T02:04:07;100410.25;;;10.64;100.00
8160;BME280;27404;52.398;9.646;2022-10-16T02:06:34;100417.50;;;10.59;100.00
8160;BME280;27404;52.398;9.646;2022-10-16T02:09:01;100404.56;;;10.54;100.00
8160;BME280;27404;52.398;9.646;2022-10-16T02:11:26;100402.31;;;10.51;100.00
8160;BME280;27404;52.398;9.646;2022-10-16T02:13:55;100408.25;;;10.48;100.00
8160;BME280;27404;52.398;9.646;2022-10-16T02:16:36;100415.63;;;10.47;100.00
8160;BME280;27404;52.398;9.646;2022-10-16T02:19:03;100406.59;;;10.47;100.00
8160;BME280;27404;52.398;9.646;2022-10-16T02:21:35;100412.06;;;10.47;100.00
8160;BME280;27404;52.398;9.646;2022-10-16T02:26:36;100428.69;;;10.45;100.00
8160;BME280;27404;52.398;9.646;2022-10-16T02:29:10;100423.25;;;10.45;100.00
8160;BME280;27404;52.398;9.646;2022-10-16T02:31:41;100431.78;;;10.49;100.00
8160;BME280;27404;52.398;9.646;2022-10-16T02:34:09;100432.38;;;10.51;100.00
8160;BME280;27404;52.398;9.646;2022-10-16T02:36:38;100424.28;;;10.56;100.00
8160;BME280;27404;52.398;9.646;2022-10-16T02:39:05;100418.00;;;10.56;100.00
8160;BME280;27404;52.398;9.646;2022-10-16T02:41:31;100413.34;;;10.56;100.00
8160;BME280;27404;52.398;9.646;2022-10-16T02:43:57;100407.41;;;10.59;100.00
8160;BME280;27404;52.398;9.646;2022-10-16T02:46:23;100405.13;;;10.56;100.00
8160;BME280;27404;52.398;9.646;2022-10-16T02:48:48;100412.59;;;10.61;100.00
8160;BME280;27404;52.398;9.646;2022-10-16T02:51:14;100415.13;;;10.62;100.00
8160;BME280;27404;52.398;9.646;2022-10-16T02:53:39;100419.88;;;10.55;100.00
8160;BME280;27404;52.398;9.646;2022-10-16T02:56:05;100422.13;;;10.58;100.00
8160;BME280;27404;52.398;9.646;2022-10-16T02:58:30;100417.75;;;10.57;100.00
8160;BME280;27404;52.398;9.646;2022-10-16T03:00:55;100427.25;;;10.55;100.00
8160;BME280;27404;52.398;9.646;2022-10-16T03:03:21;100422.28;;;10.51;100.00
8160;BME280;27404;52.398;9.646;2022-10-16T03:05:46;100417.50;;;10.47;100.00
8160;BME280;27404;52.398;9.646;2022-10-16T03:08:13;100418.22;;;10.54;100.00
8160;BME280;27404;52.398;9.646;2022-10-16T03:10:38;100412.41;;;10.50;100.00
8160;BME280;27404;52.398;9.646;2022-10-16T03:13:04;100414.78;;;10.47;100.00
8160;BME280;27404;52.398;9.646;2022-10-16T03:15:29;100419.66;;;10.45;100.00
8160;BME280;27404;52.398;9.646;2022-10-16T03:17:57;100422.97;;;10.47;100.00
8160;BME280;27404;52.398;9.646;2022-10-16T03:20:23;100435.69;;;10.53;100.00
8160;BME280;27404;52.398;9.646;2022-10-16T03:22:48;100429.16;;;10.54;100.00
8160;BME280;27404;52.398;9.646;2022-10-16T03:25:14;100426.06;;;10.62;100.00
8160;BME280;27404;52.398;9.646;2022-10-16T03:27:39;100427.22;;;10.66;100.00
8160;BME280;27404;52.398;9.646;2022-10-16T03:30:05;100423.06;;;10.64;100.00
8160;BME280;27404;52.398;9.646;2022-10-16T03:32:31;100421.03;;;10.71;100.00
8160;BME280;27404;52.398;9.646;2022-10-16T03:34:56;100416.63;;;10.70;100.00
8160;BME280;27404;52.398;9.646;2022-10-16T03:37:22;100423.75;;;10.71;100.00
8160;BME280;27404;52.398;9.646;2022-10-16T03:39:47;100422.47;;;10.74;100.00
8160;BME280;27404;52.398;9.646;2022-10-16T03:42:13;100417.09;;;10.67;100.00
8160;BME280;27404;52.398;9.646;2022-10-16T03:44:38;100427.94;;;10.62;100.00
8160;BME280;27404;52.398;9.646;2022-10-16T03:47:04;100419.19;;;10.60;100.00
8160;BME280;27404;52.398;9.646;2022-10-16T03:49:29;100413.13;;;10.58;100.00
8160;BME280;27404;52.398;9.646;2022-10-16T03:51:55;100414.06;;;10.51;100.00
8160;BME280;27404;52.398;9.646;2022-10-16T03:54:20;100416.81;;;10.51;100.00
8160;BME280;27404;52.398;9.646;2022-10-16T03:56:47;100416.81;;;10.51;100.00
8160;BME280;27404;52.398;9.646;2022-10-16T03:59:12;100422.13;;;10.58;100.00
8160;BME280;27404;52.398;9.646;2022-10-16T04:01:38;100419.19;;;10.60;100.00
8160;BME280;27404;52.398;9.646;2022-10-16T04:04:03;100421.91;;;10.60;100.00
8160;BME280;27404;52.398;9.646;2022-10-16T04:06:29;100422.63;;;10.55;100.00
8160;BME280;27404;52.398;9.646;2022-10-16T04:08:54;100416.19;;;10.61;100.00
8160;BME280;27404;52.398;9.646;2022-10-16T04:11:20;100422.13;;;10.58;100.00
8160;BME280;27404;52.398;9.646;2022-10-16T04:13:45;100439.56;;;10.69;100.00
8160;BME280;27404;52.398;9.646;2022-10-16T04:16:11;100445.88;;;10.70;100.00
8160;BME280;27404;52.398;9.646;2022-10-16T04:18:36;100447.78;;;10.69;100.00
8160;BME280;27404;52.398;9.646;2022-10-16T04:21:06;100445.16;;;10.74;100.00
8160;BME280;27404;52.398;9.646;2022-10-16T04:23:32;100438.72;;;10.80;100.00
8160;BME280;27404;52.398;9.646;2022-10-16T04:25:57;100438.88;;;10.74;100.00
8160;BME280;27404;52.398;9.646;2022-10-16T04:28:23;100432.91;;;10.77;100.00
8160;BME280;27404;52.398;9.646;2022-10-16T04:30:48;100447.19;;;10.79;100.00
8160;BME280;27404;52.398;9.646;2022-10-16T04:33:14;100451.56;;;10.80;100.00
8160;BME280;27404;52.398;9.646;2022-10-16T04:35:39;100454.63;;;10.84;100.00
8160;BME280;27404;52.398;9.646;2022-10-16T04:38:05;100461.66;;;10.79;100.00
8160;BME280;27404;52.398;9.646;2022-10-16T04:40:30;100456.19;;;10.79;100.00
8160;BME280;27404;52.398;9.646;2022-10-16T04:43:02;100448.53;;;10.93;100.00
8160;BME280;27404;52.398;9.646;2022-10-16T04:45:27;100449.88;;;10.91;100.00
8160;BME280;27404;52.398;9.646;2022-10-16T04:47:56;100444.78;;;10.82;100.00
8160;BME280;27404;52.398;9.646;2022-10-16T04:50:22;100447.06;;;10.74;100.00
8160;BME280;27404;52.398;9.646;2022-10-16T04:52:47;100453.59;;;10.73;100.00
8160;BME280;27404;52.398;9.646;2022-10-16T04:55:13;100456.94;;;10.75;100.00
8160;BME280;27404;52.398;9.646;2022-10-16T04:57:38;100451.47;;;10.75;100.00
8160;BME280;27404;52.398;9.646;2022-10-16T05:00:04;100455.97;;;10.81;100.00
8160;BME280;27404;52.398;9.646;2022-10-16T05:02:30;100464.88;;;10.88;100.00
8160;BME280;27404;52.398;9.646;2022-10-16T05:04:55;100465.94;;;10.87;100.00
8160;BME280;27404;52.398;9.646;2022-10-16T05:07:21;100467.34;;;10.90;100.00
8160;BME280;27404;52.398;9.646;2022-10-16T05:09:46;100472.22;;;10.88;100.00
8160;BME280;27404;52.398;9.646;2022-10-16T05:12:12;100472.44;;;10.98;100.00
8160;BME280;27404;52.398;9.646;2022-10-16T05:14:37;100479.22;;;10.95;100.00
8160;BME280;27404;52.398;9.646;2022-10-16T05:17:02;100480.06;;;10.96;100.00
8160;BME280;27404;52.398;9.646;2022-10-16T05:19:28;100482.47;;;10.92;100.00
8160;BME280;27404;52.398;9.646;2022-10-16T05:21:53;100483.28;;;10.93;100.00
8160;BME280;27404;52.398;9.646;2022-10-16T05:24:19;100473.16;;;10.93;100.00
8160;BME280;27404;52.398;9.646;2022-10-16T05:26:44;100486.81;;;10.93;100.00
8160;BME280;27404;52.398;9.646;2022-10-16T05:29:10;100503.00;;;10.95;100.00
8160;BME280;27404;52.398;9.646;2022-10-16T05:31:35;100508.22;;;10.96;100.00
8160;BME280;27404;52.398;9.646;2022-10-16T05:34:01;100506.34;;;10.97;100.00
8160;BME280;27404;52.398;9.646;2022-10-16T05:36:27;100506.56;;;10.95;100.00
8160;BME280;27404;52.398;9.646;2022-10-16T05:38:53;100504.06;;;10.94;100.00
8160;BME280;27404;52.398;9.646;2022-10-16T05:41:19;100497.19;;;10.91;100.00
8160;BME280;27404;52.398;9.646;2022-10-16T05:43:48;100505.88;;;10.88;100.00
8160;BME280;27404;52.398;9.646;2022-10-16T05:46:15;100495.66;;;10.84;100.00
8160;BME280;27404;52.398;9.646;2022-10-16T05:48:40;100487.13;;;10.80;100.00
8160;BME280;27404;52.398;9.646;2022-10-16T05:51:09;100494.13;;;10.76;100.00
8160;BME280;27404;52.398;9.646;2022-10-16T05:53:36;100504.00;;;10.77;100.00
8160;BME280;27404;52.398;9.646;2022-10-16T05:56:03;100500.53;;;10.81;100.00
8160;BME280;27404;52.398;9.646;2022-10-16T05:58:31;100511.94;;;10.78;100.00
8160;BME280;27404;52.398;9.646;2022-10-16T06:01:01;100508.41;;;10.78;100.00
8160;BME280;27404;52.398;9.646;2022-10-16T06:03:27;100512.31;;;10.82;100.00
8160;BME280;27404;52.398;9.646;2022-10-16T06:05:53;100511.25;;;10.83;100.00
8160;BME280;27404;52.398;9.646;2022-10-16T06:08:20;100514.31;;;10.87;100.00
8160;BME280;27404;52.398;9.646;2022-10-16T06:10:46;100521.56;;;10.93;100.00
8160;BME280;27404;52.398;9.646;2022-10-16T06:13:13;100522.75;;;10.97;100.00
8160;BME280;27404;52.398;9.646;2022-10-16T06:15:39;100519.88;;;11.04;100.00
8160;BME280;27404;52.398;9.646;2022-10-16T06:18:10;100514.97;;;11.06;100.00
8160;BME280;27404;52.398;9.646;2022-10-16T06:20:36;100521.88;;;11.08;100.00
8160;BME280;27404;52.398;9.646;2022-10-16T06:23:03;100530.19;;;11.14;100.00
8160;BME280;27404;52.398;9.646;2022-10-16T06:25:30;100540.28;;;11.25;100.00
8160;BME280;27404;52.398;9.646;2022-10-16T06:27:56;100540.25;;;11.37;100.00
8160;BME280;27404;52.398;9.646;2022-10-16T06:30:21;100549.25;;;11.49;100.00
8160;BME280;27404;52.398;9.646;2022-10-16T06:32:47;100546.69;;;11.60;100.00
8160;BME280;27404;52.398;9.646;2022-10-16T06:35:12;100548.53;;;11.71;100.00
8160;BME280;27404;52.398;9.646;2022-10-16T06:37:38;100555.78;;;11.77;100.00
8160;BME280;27404;52.398;9.646;2022-10-16T06:40:03;100548.31;;;11.90;100.00
8160;BME280;27404;52.398;9.646;2022-10-16T06:42:29;100542.81;;;12.02;100.00
8160;BME280;27404;52.398;9.646;2022-10-16T06:44:55;100549.53;;;12.11;100.00
8160;BME280;27404;52.398;9.646;2022-10-16T06:47:21;100553.31;;;12.22;100.00
8160;BME280;27404;52.398;9.646;2022-10-16T06:49:46;100555.09;;;12.33;100.00
8160;BME280;27404;52.398;9.646;2022-10-16T06:52:12;100570.31;;;12.58;100.00
8160;BME280;27404;52.398;9.646;2022-10-16T06:54:37;100571.69;;;12.78;100.00
8160;BME280;27404;52.398;9.646;2022-10-16T06:57:02;100576.06;;;12.96;100.00
8160;BME280;27404;52.398;9.646;2022-10-16T06:59:28;100578.69;;;13.08;100.00
8160;BME280;27404;52.398;9.646;2022-10-16T07:01:53;100583.72;;;13.16;100.00
8160;BME280;27404;52.398;9.646;2022-10-16T07:04:19;100581.91;;;13.22;100.00
8160;BME280;27404;52.398;9.646;2022-10-16T07:06:44;100574.34;;;13.34;100.00
8160;BME280;27404;52.398;9.646;2022-10-16T07:09:10;100570.66;;;13.45;100.00
8160;BME280;27404;52.398;9.646;2022-10-16T07:11:37;100576.56;;;13.54;100.00
8160;BME280;27404;52.398;9.646;2022-10-16T07:14:04;100569.69;;;13.57;100.00
8160;BME280;27404;52.398;9.646;2022-10-16T07:16:31;100579.88;;;13.56;100.00
8160;BME280;27404;52.398;9.646;2022-10-16T07:18:59;100602.16;;;13.60;100.00
8160;BME280;27404;52.398;9.646;2022-10-16T07:21:30;100597.88;;;13.69;100.00
8160;BME280;27404;52.398;9.646;2022-10-16T07:23:58;100600.91;;;13.73;100.00
8160;BME280;27404;52.398;9.646;2022-10-16T07:26:25;100605.94;;;13.81;100.00
8160;BME280;27404;52.398;9.646;2022-10-16T07:28:50;100599.88;;;13.79;100.00
8160;BME280;27404;52.398;9.646;2022-10-16T07:31:18;100601.81;;;13.79;100.00
8160;BME280;27404;52.398;9.646;2022-10-16T07:33:45;100617.22;;;13.80;100.00
8160;BME280;27404;52.398;9.646;2022-10-16T07:36:12;100621.81;;;14.01;100.00
8160;BME280;27404;52.398;9.646;2022-10-16T07:38:38;100627.22;;;14.18;100.00
8160;BME280;27404;52.398;9.646;2022-10-16T07:41:06;100630.44;;;14.38;100.00
8160;BME280;27404;52.398;9.646;2022-10-16T07:43:33;100633.66;;;14.62;100.00
8160;BME280;27404;52.398;9.646;2022-10-16T07:45:59;100644.53;;;14.79;100.00
8160;BME280;27404;52.398;9.646;2022-10-16T07:48:31;100656.50;;;15.00;100.00
8160;BME280;27404;52.398;9.646;2022-10-16T07:51:05;100657.88;;;14.98;100.00
8160;BME280;27404;52.398;9.646;2022-10-16T07:53:31;100659.09;;;15.12;100.00
8160;BME280;27404;52.398;9.646;2022-10-16T07:55:58;100647.22;;;15.12;100.00
8160;BME280;27404;52.398;9.646;2022-10-16T07:58:24;100651.16;;;15.26;100.00
8160;BME280;27404;52.398;9.646;2022-10-16T08:00:50;100651.41;;;15.24;100.00
8160;BME280;27404;52.398;9.646;2022-10-16T08:03:15;100654.56;;;15.44;100.00
8160;BME280;27404;52.398;9.646;2022-10-16T08:05:41;100663.16;;;15.58;100.00
8160;BME280;27404;52.398;9.646;2022-10-16T08:08:06;100670.59;;;15.57;100.00
8160;BME280;27404;52.398;9.646;2022-10-16T08:10:32;100682.16;;;15.54;100.00
8160;BME280;27404;52.398;9.646;2022-10-16T08:12:57;100679.41;;;15.59;100.00
8160;BME280;27404;52.398;9.646;2022-10-16T08:15:24;100690.44;;;15.54;100.00
8160;BME280;27404;52.398;9.646;2022-10-16T08:18:01;100689.81;;;15.42;100.00
8160;BME280;27404;52.398;9.646;2022-10-16T08:20:29;100684.50;;;15.30;100.00
8160;BME280;27404;52.398;9.646;2022-10-16T08:22:54;100688.81;;;15.10;100.00
8160;BME280;27404;52.398;9.646;2022-10-16T08:25:22;100693.06;;;14.90;100.00
8160;BME280;27404;52.398;9.646;2022-10-16T08:27:48;100699.38;;;14.86;100.00
8160;BME280;27404;52.398;9.646;2022-10-16T08:30:13;100687.94;;;14.72;100.00
8160;BME280;27404;52.398;9.646;2022-10-16T08:32:39;100701.34;;;14.63;100.00
8160;BME280;27404;52.398;9.646;2022-10-16T08:35:06;100702.47;;;14.67;100.00
8160;BME280;27404;52.398;9.646;2022-10-16T08:37:32;100706.69;;;14.75;100.00
8160;BME280;27404;52.398;9.646;2022-10-16T08:39:58;100701.03;;;14.87;100.00
8160;BME280;27404;52.398;9.646;2022-10-16T08:45:21;100708.75;;;14.90;100.00
8160;BME280;27404;52.398;9.646;2022-10-16T08:48:00;100709.03;;;14.93;100.00
8160;BME280;27404;52.398;9.646;2022-10-16T08:50:33;100709.94;;;15.04;100.00
8160;BME280;27404;52.398;9.646;2022-10-16T08:53:04;100713.25;;;15.06;100.00
8160;BME280;27404;52.398;9.646;2022-10-16T08:55:41;100713.31;;;15.12;100.00
8160;BME280;27404;52.398;9.646;2022-10-16T08:58:15;100718.88;;;15.22;100.00
8160;BME280;27404;52.398;9.646;2022-10-16T09:00:43;100721.41;;;15.29;100.00
8160;BME280;27404;52.398;9.646;2022-10-16T09:03:21;100723.38;;;15.33;100.00
8160;BME280;27404;52.398;9.646;2022-10-16T09:06:23;100721.78;;;15.43;100.00
8160;BME280;27404;52.398;9.646;2022-10-16T09:14:23;100737.56;;;15.58;100.00
8160;BME280;27404;52.398;9.646;2022-10-16T09:22:35;100751.13;;;15.69;100.00
8160;BME280;27404;52.398;9.646;2022-10-16T09:25:10;100745.91;;;15.73;100.00
8160;BME280;27404;52.398;9.646;2022-10-16T09:27:36;100760.00;;;15.82;100.00
8160;BME280;27404;52.398;9.646;2022-10-16T09:30:11;100763.66;;;15.88;100.00
8160;BME280;27404;52.398;9.646;2022-10-16T09:32:37;100761.75;;;15.93;100.00
8160;BME280;27404;52.398;9.646;2022-10-16T09:35:11;100766.16;;;15.94;100.00
8160;BME280;27404;52.398;9.646;2022-10-16T09:37:39;100762.22;;;15.85;100.00
8160;BME280;27404;52.398;9.646;2022-10-16T09:40:06;100763.94;;;15.91;100.00
8160;BME280;27404;52.398;9.646;2022-10-16T09:42:35;100759.56;;;15.95;100.00
8160;BME280;27404;52.398;9.646;2022-10-16T09:45:03;100781.66;;;16.06;100.00
8160;BME280;27404;52.398;9.646;2022-10-16T09:47:30;100769.84;;;16.16;100.00
8160;BME280;27404;52.398;9.646;2022-10-16T09:49:58;100776.72;;;16.13;100.00
8160;BME280;27404;52.398;9.646;2022-10-16T09:52:26;100773.97;;;16.23;100.00
8160;BME280;27404;52.398;9.646;2022-10-16T09:55:12;100782.31;;;16.34;100.00
8160;BME280;27404;52.398;9.646;2022-10-16T09:57:51;100787.31;;;16.52;100.00
8160;BME280;27404;52.398;9.646;2022-10-16T10:00:17;100786.50;;;16.57;100.00
8160;BME280;27404;52.398;9.646;2022-10-16T10:02:44;100797.00;;;16.60;100.00
8160;BME280;27404;52.398;9.646;2022-10-16T10:05:25;100796.44;;;16.48;100.00
8160;BME280;27404;52.398;9.646;2022-10-16T10:07:56;100797.72;;;16.29;100.00
8160;BME280;27404;52.398;9.646;2022-10-16T10:10:28;100803.00;;;16.36;100.00
8160;BME280;27404;52.398;9.646;2022-10-16T10:12:54;100800.53;;;16.45;100.00
8160;BME280;27404;52.398;9.646;2022-10-16T10:15:21;100798.66;;;16.61;100.00
8160;BME280;27404;52.398;9.646;2022-10-16T10:17:54;100804.75;;;16.68;100.00
8160;BME280;27404;52.398;9.646;2022-10-16T10:20:34;100804.75;;;16.73;100.00
8160;BME280;27404;52.398;9.646;2022-10-16T10:23:00;100808.06;;;16.76;100.00
8160;BME280;27404;52.398;9.646;2022-10-16T10:28:16;100821.31;;;16.79;100.00
8160;BME280;27404;52.398;9.646;2022-10-16T10:38:59;100825.56;;;17.54;99.35
8160;BME280;27404;52.398;9.646;2022-10-16T10:47:44;100839.88;;;17.61;95.19
8160;BME280;27404;52.398;9.646;2022-10-16T10:50:39;100833.56;;;17.19;93.41
8160;BME280;27404;52.398;9.646;2022-10-16T10:53:34;100825.28;;;17.04;95.63
8160;BME280;27404;52.398;9.646;2022-10-16T10:56:24;100826.59;;;16.91;95.40
8160;BME280;27404;52.398;9.646;2022-10-16T11:07:15;100831.00;;;16.92;98.73
8160;BME280;27404;52.398;9.646;2022-10-16T11:09:47;100825.53;;;17.07;96.80
8160;BME280;27404;52.398;9.646;2022-10-16T11:12:21;100832.47;;;17.15;93.73
8160;BME280;27404;52.398;9.646;2022-10-16T11:14:51;100840.47;;;17.32;94.27
8160;BME280;27404;52.398;9.646;2022-10-16T11:17:31;100839.34;;;17.59;90.25
8160;BME280;27404;52.398;9.646;2022-10-16T11:23:09;100835.19;;;17.82;90.93
8160;BME280;27404;52.398;9.646;2022-10-16T11:25:33;100846.75;;;17.89;89.79
8160;BME280;27404;52.398;9.646;2022-10-16T11:30:47;100845.16;;;17.68;87.02
8160;BME280;27404;52.398;9.646;2022-10-16T11:40:47;100860.09;;;17.61;86.72
8160;BME280;27404;52.398;9.646;2022-10-16T11:43:34;100857.06;;;17.42;85.95
8160;BME280;27404;52.398;9.646;2022-10-16T11:46:26;100857.06;;;17.37;86.71
8160;BME280;27404;52.398;9.646;2022-10-16T11:49:14;100861.19;;;17.40;87.25
8160;BME280;27404;52.398;9.646;2022-10-16T11:51:48;100868.13;;;17.48;87.10
8160;BME280;27404;52.398;9.646;2022-10-16T11:57:02;100860.63;;;17.53;82.28
8160;BME280;27404;52.398;9.646;2022-10-16T11:59:44;100863.09;;;17.65;84.90
8160;BME280;27404;52.398;9.646;2022-10-16T12:05:18;100866.44;;;17.67;83.05
8160;BME280;27404;52.398;9.646;2022-10-16T12:08:14;100878.03;;;17.80;81.53
8160;BME280;27404;52.398;9.646;2022-10-16T12:10:45;100881.34;;;17.71;82.74
8160;BME280;27404;52.398;9.646;2022-10-16T12:13:34;100885.22;;;17.91;82.65
8160;BME280;27404;52.398;9.646;2022-10-16T12:18:43;100894.06;;;18.03;84.19
8160;BME280;27404;52.398;9.646;2022-10-16T12:21:10;100890.75;;;18.07;81.01
8160;BME280;27404;52.398;9.646;2022-10-16T12:23:47;100881.03;;;18.19;81.76
8160;BME280;27404;52.398;9.646;2022-10-16T12:26:14;100892.97;;;18.04;82.38
8160;BME280;27404;52.398;9.646;2022-10-16T12:28:48;100889.34;;;17.94;81.79
8160;BME280;27404;52.398;9.646;2022-10-16T12:31:16;100888.84;;;17.60;86.07
8160;BME280;27404;52.398;9.646;2022-10-16T12:34:00;100888.28;;;17.48;84.67
8160;BME280;27404;52.398;9.646;2022-10-16T12:36:30;100893.78;;;17.27;86.73
8160;BME280;27404;52.398;9.646;2022-10-16T12:38:57;100893.78;;;17.07;89.09
8160;BME280;27404;52.398;9.646;2022-10-16T12:41:28;100889.91;;;17.08;89.05
8160;BME280;27404;52.398;9.646;2022-10-16T12:43:54;100898.22;;;17.18;90.07
8160;BME280;27404;52.398;9.646;2022-10-16T12:46:39;100894.06;;;17.15;87.43
8160;BME280;27404;52.398;9.646;2022-10-16T12:51:41;100901.81;;;17.24;86.90
8160;BME280;27404;52.398;9.646;2022-10-16T12:57:20;100906.50;;;17.34;85.50
8160;BME280;27404;52.398;9.646;2022-10-16T13:05:21;100915.94;;;17.58;83.48
8160;BME280;27404;52.398;9.646;2022-10-16T13:10:33;100918.94;;;17.72;83.53
8160;BME280;27404;52.398;9.646;2022-10-16T13:16:06;100931.13;;;17.97;80.35
8160;BME280;27404;52.398;9.646;2022-10-16T13:27:27;100935.56;;;17.46;84.61
8160;BME280;27404;52.398;9.646;2022-10-16T13:30:11;100945.19;;;17.28;86.50
8160;BME280;27404;52.398;9.646;2022-10-16T13:32:38;100949.31;;;17.15;86.42
8160;BME280;27404;52.398;9.646;2022-10-16T13:35:19;100949.28;;;17.05;86.65
8160;BME280;27404;52.398;9.646;2022-10-16T13:37:45;100950.69;;;17.08;87.80
8160;BME280;27404;52.398;9.646;2022-10-16T13:40:22;100950.41;;;17.20;90.66
8160;BME280;27404;52.398;9.646;2022-10-16T13:42:48;100954.03;;;17.30;89.63
8160;BME280;27404;52.398;9.646;2022-10-16T13:45:22;100949.06;;;17.43;88.96
8160;BME280;27404;52.398;9.646;2022-10-16T13:47:47;100949.63;;;17.45;87.85
8160;BME280;27404;52.398;9.646;2022-10-16T13:50:16;100958.22;;;17.49;88.15
8160;BME280;27404;52.398;9.646;2022-10-16T13:52:42;100954.59;;;17.48;86.01
8160;BME280;27404;52.398;9.646;2022-10-16T13:55:12;100950.19;;;17.52;85.60
8160;BME280;27404;52.398;9.646;2022-10-16T13:57:38;100953.22;;;17.61;86.00
8160;BME280;27404;52.398;9.646;2022-10-16T14:00:21;100952.41;;;17.60;84.74
8160;BME280;27404;52.398;9.646;2022-10-16T14:02:54;100955.44;;;17.64;86.70
8160;BME280;27404;52.398;9.646;2022-10-16T14:05:21;100951.56;;;17.60;84.47
8160;BME280;27404;52.398;9.646;2022-10-16T14:07:49;100964.84;;;17.58;83.41
8160;BME280;27404;52.398;9.646;2022-10-16T14:10:27;100965.97;;;17.52;84.70
8160;BME280;27404;52.398;9.646;2022-10-16T14:13:04;100962.34;;;17.51;85.61
8160;BME280;27404;52.398;9.646;2022-10-16T14:15:32;100965.66;;;17.48;86.69
8160;BME280;27404;52.398;9.646;2022-10-16T14:17:59;100972.84;;;17.49;87.43
8160;BME280;27404;52.398;9.646;2022-10-16T14:20:27;100973.69;;;17.50;86.68
8160;BME280;27404;52.398;9.646;2022-10-16T14:23:04;100978.13;;;17.66;86.66
8160;BME280;27404;52.398;9.646;2022-10-16T14:25:43;100981.97;;;17.60;86.04
8160;BME280;27404;52.398;9.646;2022-10-16T14:36:00;100985.00;;;17.48;80.95
8160;BME280;27404;52.398;9.646;2022-10-16T14:38:26;100983.34;;;17.47;81.96
8160;BME280;27404;52.398;9.646;2022-10-16T14:40:52;100988.88;;;17.47;82.56
8160;BME280;27404;52.398;9.646;2022-10-16T14:43:22;100990.28;;;17.44;84.16
8160;BME280;27404;52.398;9.646;2022-10-16T14:45:55;100994.69;;;17.40;85.17